createdAt,value
2022-11-23T00:02:05.492Z,3.50
2022-11-23T00:04:32.252Z,3.80
2022-11-23T00:06:58.924Z,3.40
2022-11-23T00:09:25.548Z,3.50
2022-11-23T00:11:52.185Z,3.60
2022-11-23T00:14:18.883Z,3.50
2022-11-23T00:16:45.588Z,3.50
2022-11-23T00:19:12.235Z,3.50
2022-11-23T00:21:38.835Z,3.60
2022-11-23T00:24:05.612Z,3.50
2022-11-23T00:26:32.208Z,3.60
2022-11-23T00:28:58.827Z,3.70
2022-11-23T00:31:25.661Z,3.60
2022-11-23T00:33:52.957Z,3.60
2022-11-23T00:36:19.770Z,3.60
2022-11-23T00:38:46.481Z,3.60
2022-11-23T00:41:14.134Z,3.60
2022-11-23T00:43:40.814Z,3.70
2022-11-23T00:46:12.980Z,3.70
2022-11-23T00:48:39.704Z,3.70
2022-11-23T00:51:07.674Z,3.60
2022-11-23T00:53:34.725Z,3.60
2022-11-23T00:56:01.374Z,4.20
2022-11-23T00:58:28.370Z,3.60
2022-11-23T01:01:21.483Z,3.60
2022-11-23T01:03:49.076Z,3.60
2022-11-23T01:06:19.664Z,3.60
2022-11-23T01:08:53.633Z,3.60
2022-11-23T01:11:20.344Z,3.60
2022-11-23T01:13:46.953Z,3.50
2022-11-23T01:16:19.514Z,3.50
2022-11-23T01:18:53.787Z,3.50
2022-11-23T01:21:20.446Z,3.50
2022-11-23T01:23:47.087Z,3.50
2022-11-23T01:26:13.710Z,3.40
2022-11-23T01:28:40.427Z,3.50
2022-11-23T01:31:07.864Z,3.40
2022-11-23T01:33:34.533Z,3.40
2022-11-23T01:36:01.153Z,3.40
2022-11-23T01:38:27.810Z,3.40
2022-11-23T01:40:54.409Z,3.40
2022-11-23T01:43:21.100Z,3.50
2022-11-23T01:45:53.847Z,3.50
2022-11-23T01:48:21.661Z,3.50
2022-11-23T01:50:48.930Z,3.50
2022-11-23T01:53:15.554Z,3.50
2022-11-23T01:55:42.625Z,3.50
2022-11-23T01:58:09.260Z,3.60
2022-11-23T02:00:35.957Z,3.60
2022-11-23T02:03:02.679Z,3.60
2022-11-23T02:05:34.024Z,3.60
2022-11-23T02:08:00.852Z,3.70
2022-11-23T02:10:28.122Z,3.70
2022-11-23T02:12:54.913Z,3.70
2022-11-23T02:15:21.625Z,3.70
2022-11-23T02:17:48.247Z,3.70
2022-11-23T02:20:15.164Z,3.70
2022-11-23T02:22:51.237Z,3.70
2022-11-23T02:25:36.133Z,3.70
2022-11-23T02:28:02.873Z,3.80
2022-11-23T02:30:29.950Z,3.80
2022-11-23T02:32:56.682Z,3.80
2022-11-23T02:35:23.395Z,3.90
2022-11-23T02:37:50.058Z,3.90
2022-11-23T02:40:20.074Z,3.90
2022-11-23T02:42:46.762Z,3.90
2022-11-23T02:45:19.444Z,3.90
2022-11-23T02:47:46.233Z,3.90
2022-11-23T02:50:12.932Z,3.90
2022-11-23T02:52:39.572Z,3.90
2022-11-23T02:55:06.346Z,4.40
2022-11-23T02:57:32.994Z,3.90
2022-11-23T02:59:59.609Z,3.90
2022-11-23T03:02:26.237Z,4.10
2022-11-23T03:04:52.872Z,3.90
2022-11-23T03:07:19.570Z,3.90
2022-11-23T03:09:46.226Z,3.90
2022-11-23T03:12:12.947Z,3.90
2022-11-23T03:14:39.655Z,3.90
2022-11-23T03:17:06.331Z,3.90
2022-11-23T03:19:33.196Z,3.90
2022-11-23T03:21:59.970Z,3.90
2022-11-23T03:24:26.631Z,3.90
2022-11-23T03:26:53.308Z,3.80
2022-11-23T03:29:19.988Z,3.90
2022-11-23T03:31:46.603Z,3.80
2022-11-23T03:34:13.362Z,3.90
2022-11-23T03:36:40.010Z,3.80
2022-11-23T03:39:06.687Z,3.80
2022-11-23T03:41:33.325Z,3.80
2022-11-23T03:43:59.935Z,4.00
2022-11-23T03:46:26.554Z,4.10
2022-11-23T03:48:53.208Z,3.60
2022-11-23T03:51:19.869Z,3.60
2022-11-23T03:53:46.563Z,3.60
2022-11-23T03:56:13.230Z,3.70
2022-11-23T03:58:39.831Z,3.60
2022-11-23T04:01:06.800Z,3.60
2022-11-23T04:03:33.602Z,3.60
2022-11-23T04:06:00.513Z,3.60
2022-11-23T04:08:27.113Z,3.70
2022-11-23T04:10:56.769Z,3.60
2022-11-23T04:13:23.738Z,3.70
2022-11-23T04:15:50.349Z,3.60
2022-11-23T04:18:17.073Z,3.60
2022-11-23T04:20:43.675Z,3.60
2022-11-23T04:23:13.233Z,3.70
2022-11-23T04:25:40.494Z,3.60
2022-11-23T04:28:07.098Z,3.60
2022-11-23T04:30:33.712Z,3.70
2022-11-23T04:33:00.328Z,4.10
2022-11-23T04:35:27.048Z,3.60
2022-11-23T04:37:53.690Z,3.70
2022-11-23T04:40:20.343Z,3.70
2022-11-23T04:42:46.994Z,3.70
2022-11-23T04:45:13.741Z,3.60
2022-11-23T04:47:40.383Z,3.70
2022-11-23T04:50:07.160Z,3.70
2022-11-23T04:52:33.808Z,3.60
2022-11-23T04:55:00.447Z,4.30
2022-11-23T04:57:27.066Z,4.40
2022-11-23T04:59:53.730Z,3.60
2022-11-23T05:02:20.438Z,3.70
2022-11-23T05:04:47.144Z,4.30
2022-11-23T05:07:13.821Z,3.60
2022-11-23T05:09:40.474Z,3.60
2022-11-23T05:12:08.327Z,3.60
2022-11-23T05:14:34.960Z,3.60
2022-11-23T05:17:01.597Z,3.60
2022-11-23T05:19:28.213Z,4.00
2022-11-23T05:21:54.819Z,3.60
2022-11-23T05:24:21.452Z,3.60
2022-11-23T05:26:50.878Z,3.60
2022-11-23T05:29:21.481Z,3.50
2022-11-23T05:31:48.123Z,3.60
2022-11-23T05:34:14.805Z,3.60
2022-11-23T05:36:42.526Z,3.60
2022-11-23T05:39:09.263Z,4.10
2022-11-23T05:41:35.880Z,3.60
2022-11-23T05:44:02.690Z,3.80
2022-11-23T05:46:29.355Z,3.60
2022-11-23T05:48:56.096Z,4.30
2022-11-23T05:51:22.730Z,3.50
2022-11-23T05:53:49.415Z,3.50
2022-11-23T05:56:16.030Z,3.50
2022-11-23T05:58:42.698Z,3.50
2022-11-23T06:01:09.324Z,3.50
2022-11-23T06:03:36.056Z,3.60
2022-11-23T06:06:02.800Z,3.50
2022-11-23T06:08:29.468Z,3.40
2022-11-23T06:10:56.125Z,3.50
2022-11-23T06:13:22.754Z,3.50
2022-11-23T06:15:49.405Z,3.50
2022-11-23T06:18:16.063Z,3.70
2022-11-23T06:20:42.719Z,3.50
2022-11-23T06:23:09.361Z,3.40
2022-11-23T06:25:38.441Z,3.40
2022-11-23T06:28:05.230Z,3.40
2022-11-23T06:30:31.864Z,3.50
2022-11-23T06:32:58.596Z,3.60
2022-11-23T06:35:25.203Z,3.60
2022-11-23T06:37:52.040Z,3.60
2022-11-23T06:40:18.728Z,3.70
2022-11-23T06:42:45.444Z,3.50
2022-11-23T06:45:12.106Z,3.50
2022-11-23T06:47:38.784Z,3.50
2022-11-23T06:50:05.643Z,3.50
2022-11-23T06:52:32.299Z,3.40
2022-11-23T06:54:58.941Z,3.40
2022-11-23T06:57:26.029Z,3.50
2022-11-23T06:59:52.730Z,3.50
2022-11-23T07:02:19.449Z,3.50
2022-11-23T07:04:46.078Z,3.50
2022-11-23T07:07:12.842Z,3.60
2022-11-23T07:09:39.496Z,3.70
2022-11-23T07:12:06.262Z,4.00
2022-11-23T07:14:32.903Z,3.60
2022-11-23T07:16:59.515Z,3.70
2022-11-23T07:19:26.458Z,3.70
2022-11-23T07:21:53.288Z,3.70
2022-11-23T07:24:19.964Z,3.80
2022-11-23T07:26:46.569Z,3.80
2022-11-23T07:29:13.238Z,4.40
2022-11-23T07:31:39.959Z,3.80
2022-11-23T07:34:06.647Z,3.80
2022-11-23T07:36:33.356Z,2.80
2022-11-23T07:39:00.221Z,3.90
2022-11-23T07:41:27.570Z,3.80
2022-11-23T07:43:54.419Z,3.80
2022-11-23T07:46:21.544Z,4.10
2022-11-23T07:48:50.463Z,4.20
2022-11-23T07:51:19.738Z,3.90
2022-11-23T07:53:47.090Z,4.00
2022-11-23T07:56:14.671Z,4.00
2022-11-23T07:58:45.597Z,5.20
2022-11-23T08:01:18.173Z,4.10
2022-11-23T08:06:26.795Z,4.00
2022-11-23T08:16:58.789Z,4.40
2022-11-23T08:22:14.679Z,4.20
2022-11-23T08:27:24.546Z,3.30
2022-11-23T08:29:59.612Z,4.70
2022-11-23T08:32:34.639Z,4.30
2022-11-23T08:37:42.724Z,6.00
2022-11-23T08:40:10.153Z,5.50
2022-11-23T08:42:36.997Z,4.70
2022-11-23T08:45:05.502Z,6.30
2022-11-23T08:47:32.529Z,4.90
2022-11-23T08:49:59.359Z,4.80
2022-11-23T08:52:26.357Z,4.80
2022-11-23T08:54:52.979Z,5.00
2022-11-23T08:57:19.625Z,4.70
2022-11-23T08:59:46.292Z,4.80
2022-11-23T09:02:13.519Z,4.70
2022-11-23T09:04:40.438Z,4.70
2022-11-23T09:07:07.261Z,4.70
2022-11-23T09:09:33.914Z,4.60
2022-11-23T09:12:00.606Z,4.60
2022-11-23T09:14:27.870Z,4.70
2022-11-23T09:16:54.758Z,4.50
2022-11-23T09:19:21.960Z,4.50
2022-11-23T09:21:48.699Z,4.80
2022-11-23T09:24:15.620Z,4.60
2022-11-23T09:26:42.379Z,4.40
2022-11-23T09:29:09.636Z,5.20
2022-11-23T09:31:36.402Z,4.50
2022-11-23T09:34:03.142Z,4.60
2022-11-23T09:36:30.192Z,4.50
2022-11-23T09:38:57.643Z,4.50
2022-11-23T09:41:27.422Z,4.60
2022-11-23T09:44:01.086Z,4.60
2022-11-23T09:46:37.300Z,4.70
2022-11-23T09:49:08.299Z,4.70
2022-11-23T09:51:35.782Z,5.20
2022-11-23T09:54:06.813Z,4.90
2022-11-23T09:56:33.746Z,4.90
2022-11-23T09:59:01.856Z,5.40
2022-11-23T10:01:30.413Z,4.90
2022-11-23T10:03:57.227Z,5.00
2022-11-23T10:06:31.444Z,5.10
2022-11-23T10:09:01.158Z,5.00
2022-11-23T10:11:33.806Z,5.10
2022-11-23T10:14:15.293Z,5.10
2022-11-23T10:16:48.896Z,5.30
2022-11-23T10:19:15.516Z,5.20
2022-11-23T10:21:45.304Z,5.60
2022-11-23T10:24:19.292Z,5.40
2022-11-23T10:26:46.952Z,5.50
2022-11-23T10:29:13.643Z,5.50
2022-11-23T10:31:41.030Z,5.50
2022-11-23T10:34:14.568Z,5.50
2022-11-23T10:36:41.222Z,5.60
2022-11-23T10:39:26.680Z,5.80
2022-11-23T10:41:53.832Z,5.70
2022-11-23T10:44:34.050Z,5.80
2022-11-23T10:47:01.074Z,5.90
2022-11-23T10:49:29.652Z,5.90
2022-11-23T10:51:56.470Z,5.80
2022-11-23T10:54:23.150Z,6.10
2022-11-23T10:56:50.358Z,6.20
2022-11-23T10:59:27.084Z,6.10
2022-11-23T11:02:12.450Z,6.10
2022-11-23T11:04:39.204Z,6.10
2022-11-23T11:07:26.760Z,6.10
2022-11-23T11:09:54.590Z,6.00
2022-11-23T11:12:21.551Z,6.70
2022-11-23T11:14:55.356Z,5.20
2022-11-23T11:17:33.316Z,5.90
2022-11-23T11:20:23.363Z,5.80
2022-11-23T11:22:50.476Z,5.90
2022-11-23T11:25:36.304Z,5.90
2022-11-23T11:28:17.216Z,4.80
2022-11-23T11:30:51.155Z,5.80
2022-11-23T11:33:20.056Z,5.80
2022-11-23T11:35:47.477Z,5.70
2022-11-23T11:38:14.890Z,7.00
2022-11-23T11:40:44.831Z,5.70
2022-11-23T11:43:31.286Z,5.70
2022-11-23T11:46:28.745Z,5.70
2022-11-23T11:49:02.837Z,5.80
2022-11-23T11:51:34.665Z,5.70
2022-11-23T11:54:10.781Z,5.70
2022-11-23T11:56:44.206Z,5.60
2022-11-23T11:59:14.007Z,5.50
2022-11-23T12:01:59.244Z,5.70
2022-11-23T12:04:36.276Z,5.50
2022-11-23T12:07:21.217Z,5.50
2022-11-23T12:09:48.764Z,5.50
2022-11-23T12:12:16.993Z,6.50
2022-11-23T12:14:43.976Z,5.50
2022-11-23T12:17:40.389Z,5.90
2022-11-23T12:20:09.201Z,5.60
2022-11-23T12:22:54.790Z,6.10
2022-11-23T12:26:05.837Z,5.80
2022-11-23T12:28:51.598Z,5.50
2022-11-23T12:31:18.333Z,5.60
2022-11-23T12:33:54.938Z,5.40
2022-11-23T12:36:31.145Z,5.50
2022-11-23T12:39:19.499Z,5.40
2022-11-23T12:41:50.746Z,5.40
2022-11-23T12:44:37.159Z,6.50
2022-11-23T12:47:13.487Z,5.40
2022-11-23T12:49:42.725Z,5.40
2022-11-23T12:52:28.127Z,6.30
2022-11-23T12:54:59.411Z,5.40
2022-11-23T12:57:29.229Z,5.40
2022-11-23T13:00:02.689Z,5.40
2022-11-23T13:02:36.887Z,5.50
2022-11-23T13:05:39.748Z,5.60
2022-11-23T13:08:22.726Z,5.30
2022-11-23T13:10:55.911Z,5.30
2022-11-23T13:13:36.923Z,5.40
2022-11-23T13:16:04.044Z,5.50
2022-11-23T13:18:36.904Z,5.20
2022-11-23T13:21:16.519Z,5.20
2022-11-23T13:23:43.902Z,5.20
2022-11-23T13:26:20.828Z,6.60
2022-11-23T13:28:50.890Z,5.20
2022-11-23T13:31:25.237Z,6.10
2022-11-23T13:33:56.474Z,3.90
2022-11-23T13:36:49.315Z,5.30
2022-11-23T13:39:34.970Z,5.20
2022-11-23T13:42:01.931Z,5.20
2022-11-23T13:44:30.355Z,5.30
2022-11-23T13:47:01.417Z,5.20
2022-11-23T13:49:31.166Z,5.30
2022-11-23T13:52:28.434Z,5.30
2022-11-23T13:55:05.366Z,5.60
2022-11-23T13:57:40.136Z,5.30
2022-11-23T14:00:26.097Z,5.10
2022-11-23T14:02:52.966Z,5.20
2022-11-23T14:05:36.930Z,5.80
2022-11-23T14:08:07.244Z,5.20
2022-11-23T14:10:34.058Z,5.20
2022-11-23T14:13:05.248Z,5.20
2022-11-23T14:15:37.807Z,5.20
2022-11-23T14:18:16.716Z,5.30
2022-11-23T14:20:46.005Z,5.30
2022-11-23T14:23:31.128Z,5.20
2022-11-23T14:26:19.945Z,4.50
2022-11-23T14:28:52.929Z,5.20
2022-11-23T14:31:49.833Z,5.20
2022-11-23T14:34:39.627Z,5.10
2022-11-23T14:39:59.680Z,5.20
2022-11-23T14:42:26.981Z,5.10
2022-11-23T14:44:53.795Z,5.20
2022-11-23T14:47:27.750Z,5.20
2022-11-23T14:49:54.570Z,5.20
2022-11-23T14:52:22.260Z,5.20
2022-11-23T14:54:49.731Z,5.20
2022-11-23T14:57:16.368Z,5.20
2022-11-23T14:59:43.104Z,5.10
2022-11-23T15:02:17.626Z,5.10
2022-11-23T15:04:56.265Z,5.10
2022-11-23T15:07:23.815Z,5.10
2022-11-23T15:09:57.281Z,5.10
2022-11-23T15:12:24.867Z,5.10
2022-11-23T15:14:51.972Z,5.40
2022-11-23T15:17:19.668Z,5.00
2022-11-23T15:19:56.472Z,5.00
2022-11-23T15:22:24.647Z,5.00
2022-11-23T15:24:51.331Z,5.00
2022-11-23T15:27:21.200Z,5.00
2022-11-23T15:29:51.928Z,5.00
2022-11-23T15:32:30.569Z,5.00
2022-11-23T15:34:59.765Z,5.00
2022-11-23T15:37:26.470Z,5.00
2022-11-23T15:39:53.590Z,5.00
2022-11-23T15:42:21.146Z,5.00
2022-11-23T15:44:51.265Z,5.00
2022-11-23T15:47:22.897Z,4.90
2022-11-23T15:49:49.526Z,4.90
2022-11-23T15:52:16.950Z,4.90
2022-11-23T15:54:43.913Z,4.90
2022-11-23T15:57:17.460Z,5.00
2022-11-23T15:59:50.547Z,4.90
2022-11-23T16:02:18.299Z,4.90
2022-11-23T16:04:45.806Z,4.90
2022-11-23T16:07:25.014Z,4.90
2022-11-23T16:10:02.808Z,4.90
2022-11-23T16:12:30.326Z,4.80
2022-11-23T16:14:57.783Z,5.20
2022-11-23T16:17:28.037Z,5.00
2022-11-23T16:19:58.290Z,4.80
2022-11-23T16:22:28.047Z,4.80
2022-11-23T16:24:57.740Z,4.90
2022-11-23T16:27:27.508Z,5.10
2022-11-23T16:29:57.518Z,4.80
2022-11-23T16:32:27.627Z,4.70
2022-11-23T16:34:54.545Z,4.80
2022-11-23T16:37:21.821Z,4.80
2022-11-23T16:39:48.521Z,5.30
2022-11-23T16:42:15.652Z,4.80
2022-11-23T16:44:42.567Z,4.80
2022-11-23T16:47:22.928Z,6.00
2022-11-23T16:49:49.706Z,4.80
2022-11-23T16:52:16.545Z,4.90
2022-11-23T16:54:43.226Z,4.90
2022-11-23T16:57:33.256Z,4.90
2022-11-23T17:00:02.025Z,5.00
2022-11-23T17:02:28.680Z,5.00
2022-11-23T17:04:57.334Z,5.00
2022-11-23T17:07:24.504Z,5.00
2022-11-23T17:09:51.213Z,5.10
2022-11-23T17:12:18.276Z,5.10
2022-11-23T17:14:45.693Z,5.00
2022-11-23T17:17:20.196Z,5.50
2022-11-23T17:19:48.616Z,5.10
2022-11-23T17:22:16.082Z,5.50
2022-11-23T17:24:42.882Z,5.20
2022-11-23T17:27:11.597Z,5.10
2022-11-23T17:29:41.863Z,5.40
2022-11-23T17:32:12.459Z,5.10
2022-11-23T17:34:39.255Z,5.10
2022-11-23T17:37:06.336Z,5.10
2022-11-23T17:39:33.245Z,5.10
2022-11-23T17:42:04.568Z,5.50
2022-11-23T17:44:31.779Z,5.40
2022-11-23T17:46:58.709Z,5.10
2022-11-23T17:49:28.406Z,5.20
2022-11-23T17:51:55.621Z,5.10
2022-11-23T17:54:22.692Z,5.10
2022-11-23T17:56:49.886Z,5.10
2022-11-23T17:59:16.877Z,5.10
2022-11-23T18:01:43.665Z,5.10
2022-11-23T18:04:10.371Z,5.00
2022-11-23T18:06:36.968Z,5.00
2022-11-23T18:09:03.666Z,5.50
2022-11-23T18:11:30.687Z,4.90
2022-11-23T18:13:57.310Z,5.00
2022-11-23T18:16:23.973Z,4.90
2022-11-23T18:18:51.115Z,4.90
2022-11-23T18:21:18.015Z,4.90
2022-11-23T18:23:44.746Z,4.90
2022-11-23T18:26:14.516Z,4.90
2022-11-23T18:28:41.145Z,4.90
2022-11-23T18:31:08.515Z,4.90
2022-11-23T18:33:35.272Z,4.90
2022-11-23T18:36:05.321Z,4.90
2022-11-23T18:38:32.691Z,5.00
2022-11-23T18:40:59.335Z,5.00
2022-11-23T18:43:28.542Z,5.00
2022-11-23T18:45:55.203Z,4.80
2022-11-23T18:48:22.368Z,5.90
2022-11-23T18:50:49.050Z,5.00
2022-11-23T18:53:15.857Z,5.00
2022-11-23T18:55:42.482Z,5.20
2022-11-23T18:58:09.414Z,5.10
2022-11-23T19:00:36.171Z,5.10
2022-11-23T19:03:02.827Z,5.10
2022-11-23T19:05:30.614Z,5.90
2022-11-23T19:08:04.208Z,5.20
2022-11-23T19:10:31.659Z,5.30
2022-11-23T19:13:03.700Z,5.30
2022-11-23T19:15:32.042Z,5.30
2022-11-23T19:17:59.005Z,5.30
2022-11-23T19:20:25.705Z,5.30
2022-11-23T19:23:01.070Z,5.30
2022-11-23T19:25:29.745Z,5.30
2022-11-23T19:28:10.464Z,5.30
2022-11-23T19:30:38.105Z,5.20
2022-11-23T19:33:04.788Z,5.20
2022-11-23T19:35:31.450Z,5.20
2022-11-23T19:37:58.334Z,5.20
2022-11-23T19:40:25.172Z,5.10
2022-11-23T19:42:51.791Z,5.10
2022-11-23T19:45:18.634Z,5.10
2022-11-23T19:47:55.727Z,5.00
2022-11-23T19:50:22.372Z,5.00
2022-11-23T19:53:11.270Z,5.00
2022-11-23T19:55:35.717Z,6.30
2022-11-23T19:58:02.376Z,5.00
2022-11-23T20:00:29.038Z,5.00
2022-11-23T20:02:59.356Z,5.70
2022-11-23T20:05:26.024Z,5.10
2022-11-23T20:07:52.760Z,5.00
2022-11-23T20:10:30.840Z,5.20
2022-11-23T20:12:57.783Z,5.10
2022-11-23T20:15:24.555Z,5.10
2022-11-23T20:17:51.440Z,5.10
2022-11-23T20:20:19.692Z,5.30
2022-11-23T20:22:46.332Z,5.20
2022-11-23T20:25:13.305Z,5.20
2022-11-23T20:27:40.787Z,5.20
2022-11-23T20:30:07.575Z,5.20
2022-11-23T20:32:34.247Z,5.20
2022-11-23T20:35:06.159Z,5.20
2022-11-23T20:40:19.110Z,5.30
2022-11-23T20:42:45.769Z,5.20
2022-11-23T20:45:12.558Z,5.20
2022-11-23T20:47:39.431Z,5.30
2022-11-23T20:50:06.598Z,5.20
2022-11-23T20:52:33.362Z,5.20
2022-11-23T20:55:28.636Z,5.30
2022-11-23T20:57:55.388Z,5.20
2022-11-23T21:00:22.263Z,5.20
2022-11-23T21:02:52.245Z,5.20
2022-11-23T21:05:19.274Z,5.20
2022-11-23T21:07:46.367Z,5.90
2022-11-23T21:10:32.182Z,5.50
2022-11-23T21:13:17.484Z,5.60
2022-11-23T21:15:44.185Z,5.30
2022-11-23T21:18:20.393Z,5.30
2022-11-23T21:20:47.309Z,5.30
2022-11-23T21:23:13.915Z,5.30
2022-11-23T21:25:40.505Z,5.30
2022-11-23T21:28:07.414Z,5.30
2022-11-23T21:30:35.521Z,5.30
2022-11-23T21:33:02.213Z,5.40
2022-11-23T21:35:29.096Z,5.40
2022-11-23T21:37:55.810Z,5.50
2022-11-23T21:40:22.413Z,5.00
2022-11-23T21:42:51.086Z,5.40
2022-11-23T21:45:17.684Z,5.50
2022-11-23T21:47:46.473Z,5.40
2022-11-23T21:50:13.088Z,5.40
2022-11-23T21:52:39.813Z,5.50
2022-11-23T21:55:07.241Z,5.50
2022-11-23T21:57:39.254Z,5.50
2022-11-23T22:00:06.161Z,5.60
2022-11-23T22:02:33.680Z,5.60
2022-11-23T22:05:00.485Z,5.50
2022-11-23T22:07:27.197Z,5.50
2022-11-23T22:09:53.850Z,5.60
2022-11-23T22:12:21.226Z,5.50
2022-11-23T22:14:47.926Z,5.50
2022-11-23T22:17:14.570Z,5.40
2022-11-23T22:19:41.244Z,5.50
2022-11-23T22:22:07.994Z,5.50
2022-11-23T22:24:34.926Z,5.40
2022-11-23T22:27:03.943Z,5.60
2022-11-23T22:29:30.542Z,5.50
2022-11-23T22:31:57.390Z,5.40
2022-11-23T22:34:24.228Z,5.60
2022-11-23T22:36:51.516Z,5.90
2022-11-23T22:39:18.140Z,5.50
2022-11-23T22:41:44.802Z,5.50
2022-11-23T22:44:11.414Z,5.50
2022-11-23T22:46:38.245Z,5.50
2022-11-23T22:49:05.004Z,5.50
2022-11-23T22:51:31.770Z,5.50
2022-11-23T22:53:58.866Z,5.40
2022-11-23T22:56:25.765Z,5.50
2022-11-23T22:58:52.478Z,5.50
2022-11-23T23:01:20.144Z,5.50
2022-11-23T23:03:46.930Z,6.10
2022-11-23T23:06:17.441Z,5.60
2022-11-23T23:08:44.271Z,5.50
2022-11-23T23:11:11.130Z,5.50
2022-11-23T23:13:37.842Z,5.50
2022-11-23T23:16:05.650Z,5.50
2022-11-23T23:18:32.277Z,5.40
2022-11-23T23:21:02.507Z,5.40
2022-11-23T23:23:29.669Z,5.40
2022-11-23T23:25:56.375Z,5.50
2022-11-23T23:28:23.524Z,5.40
2022-11-23T23:30:50.150Z,5.50
2022-11-23T23:33:17.161Z,5.40
2022-11-23T23:35:44.699Z,5.40
2022-11-23T23:38:11.352Z,5.50
2022-11-23T23:40:37.998Z,5.40
2022-11-23T23:43:04.678Z,5.40
2022-11-23T23:45:31.618Z,5.50
2022-11-23T23:48:13.181Z,5.50
2022-11-23T23:50:39.789Z,5.50
2022-11-23T23:53:06.398Z,5.50
2022-11-23T23:55:33.012Z,5.40
2022-11-23T23:57:59.754Z,5.50
